Time;durP1;ratioP1;P1;durP2;ratioP2;P2;SDS_P1;SDS_P2;PMS_P1;PMS_P2;Temp;Humidity;BMP_temperature;BMP_pressure;BME280_temperature;BME280_humidity;BME280_pressure;Samples;Min_cycle;Max_cycle;Signal;HPM_P1;HPM_P2
2022/11/17 00:00:03;;;;;;;;;;;11.80;1.00;;;;;;6128121;23;19908;-77
2022/11/17 00:02:28;;;;;;;;;;;11.80;1.00;;;;;;6128068;23;19901;-79
2022/11/17 00:04:54;;;;;;;;;;;11.80;99.90;;;;;;6128162;23;19901;-80
2022/11/17 00:07:19;;;;;;;;;;;11.80;1.00;;;;;;6127784;23;20009;-79
2022/11/17 00:09:45;;;;;;;;;;;11.80;1.00;;;;;;6128492;23;19908;-77
2022/11/17 00:14:55;;;;;;;;;;;11.60;1.00;;;;;;6127541;23;19997;-77
2022/11/17 00:17:20;;;;;;;;;;;11.60;1.00;;;;;;6128026;23;19905;-78
2022/11/17 00:22:33;;;;;;;;;;;11.50;1.00;;;;;;6127801;23;19951;-78
2022/11/17 00:24:59;;;;;;;;;;;11.60;99.90;;;;;;6127789;23;19954;-78
2022/11/17 00:27:24;;;;;;;;;;;11.60;99.90;;;;;;6128456;23;19955;-77
2022/11/17 00:29:50;;;;;;;;;;;11.70;99.90;;;;;;6128232;23;19901;-78
2022/11/17 00:35:01;;;;;;;;;;;11.60;99.90;;;;;;6127900;23;19947;-77
2022/11/17 00:37:32;;;;;;;;;;;11.60;99.90;;;;;;6127706;23;19917;-77
2022/11/17 00:39:58;;;;;;;;;;;11.70;99.90;;;;;;6128053;23;19901;-77
2022/11/17 00:42:23;;;;;;;;;;;11.80;99.90;;;;;;6127942;23;20413;-78
2022/11/17 00:44:49;;;;;;;;;;;11.90;99.90;;;;;;6127738;23;19976;-80
2022/11/17 00:47:15;;;;;;;;;;;11.80;99.90;;;;;;6127748;23;19901;-78
2022/11/17 00:49:40;;;;;;;;;;;11.80;99.90;;;;;;6128069;23;20379;-78
2022/11/17 00:52:06;;;;;;;;;;;11.70;99.90;;;;;;6127810;23;19905;-77
2022/11/17 00:54:32;;;;;;;;;;;11.80;99.90;;;;;;6127762;23;19904;-78
2022/11/17 00:56:57;;;;;;;;;;;11.80;99.90;;;;;;6128061;23;19925;-77
2022/11/17 00:59:23;;;;;;;;;;;11.70;99.90;;;;;;6125976;23;19980;-77
2022/11/17 01:01:48;;;;;;;;;;;11.70;99.90;;;;;;6127915;23;19908;-77
2022/11/17 01:04:14;;;;;;;;;;;11.70;99.90;;;;;;6127940;23;19908;-78
2022/11/17 01:06:41;;;;;;;;;;;11.70;99.90;;;;;;6127661;23;19901;-77
2022/11/17 01:09:10;;;;;;;;;;;11.70;99.90;;;;;;6127880;23;19912;-79
2022/11/17 01:11:35;;;;;;;;;;;11.70;99.90;;;;;;6127848;23;19901;-77
2022/11/17 01:14:01;;;;;;;;;;;11.80;99.90;;;;;;6127572;23;20351;-77
2022/11/17 01:16:27;;;;;;;;;;;11.80;99.90;;;;;;6126007;23;19992;-75
2022/11/17 01:18:53;;;;;;;;;;;11.80;99.90;;;;;;6128504;23;19956;-78
2022/11/17 01:21:20;;;;;;;;;;;11.80;99.90;;;;;;6129548;23;19901;-78
2022/11/17 01:23:46;;;;;;;;;;;11.90;99.90;;;;;;6129629;23;20302;-80
2022/11/17 01:26:13;;;;;;;;;;;11.90;99.90;;;;;;6128016;23;19901;-80
2022/11/17 01:28:39;;;;;;;;;;;12.00;99.90;;;;;;6128090;23;19908;-79
2022/11/17 01:31:16;;;;;;;;;;;11.90;99.90;;;;;;6129431;23;20240;-80
2022/11/17 01:33:41;;;;;;;;;;;12.00;99.90;;;;;;6129837;23;19905;-78
2022/11/17 01:36:09;;;;;;;;;;;12.00;99.90;;;;;;6129572;23;19984;-77
2022/11/17 01:38:35;;;;;;;;;;;12.00;99.90;;;;;;6128593;23;20344;-79
2022/11/17 01:41:02;;;;;;;;;;;12.00;99.90;;;;;;6129553;23;19901;-80
2022/11/17 01:43:47;;;;;;;;;;;12.10;99.90;;;;;;6129624;23;19928;-78
2022/11/17 01:46:18;;;;;;;;;;;11.90;99.90;;;;;;6129581;23;19901;-76
2022/11/17 01:48:44;;;;;;;;;;;11.80;99.90;;;;;;6129503;23;19901;-80
2022/11/17 01:51:12;;;;;;;;;;;11.80;99.90;;;;;;6129487;23;19910;-77
2022/11/17 01:53:38;;;;;;;;;;;11.70;99.90;;;;;;6129406;23;19992;-78
2022/11/17 01:56:06;;;;;;;;;;;11.80;99.90;;;;;;6129326;23;20244;-78
2022/11/17 01:58:36;;;;;;;;;;;11.90;99.90;;;;;;6129486;23;20285;-78
2022/11/17 02:01:02;;;;;;;;;;;11.80;99.90;;;;;;6129421;23;19901;-78
2022/11/17 02:03:31;;;;;;;;;;;11.90;99.90;;;;;;6129353;23;20320;-77
2022/11/17 02:06:04;;;;;;;;;;;12.00;99.90;;;;;;6129351;23;20043;-79
2022/11/17 02:08:31;;;;;;;;;;;12.00;99.90;;;;;;6129468;23;19929;-79
2022/11/17 02:10:59;;;;;;;;;;;12.00;99.90;;;;;;6128972;23;19905;-78
2022/11/17 02:13:25;;;;;;;;;;;11.90;99.90;;;;;;6129018;23;19901;-77
2022/11/17 02:15:50;;;;;;;;;;;11.90;99.90;;;;;;6129613;23;20280;-79
2022/11/17 02:18:16;;;;;;;;;;;11.90;99.90;;;;;;6129243;23;19901;-78
2022/11/17 02:20:58;;;;;;;;;;;12.00;99.90;;;;;;6129286;23;20312;-78
2022/11/17 02:23:24;;;;;;;;;;;11.90;99.90;;;;;;6129006;23;19901;-78
2022/11/17 02:25:57;;;;;;;;;;;11.90;99.90;;;;;;6129060;23;19928;-78
2022/11/17 02:28:30;;;;;;;;;;;11.90;99.90;;;;;;6129056;23;19901;-78
2022/11/17 02:31:11;;;;;;;;;;;11.90;99.90;;;;;;6128968;23;19925;-78
2022/11/17 02:33:37;;;;;;;;;;;11.90;99.90;;;;;;6128970;23;20328;-78
2022/11/17 02:36:17;;;;;;;;;;;11.90;99.90;;;;;;6129195;23;19941;-77
2022/11/17 02:38:45;;;;;;;;;;;11.90;99.90;;;;;;6126396;23;19988;-79
2022/11/17 02:41:11;;;;;;;;;;;11.90;99.90;;;;;;6128828;23;19901;-78
2022/11/17 02:44:04;;;;;;;;;;;11.80;99.90;;;;;;6129617;23;20012;-79
2022/11/17 02:46:38;;;;;;;;;;;11.80;99.90;;;;;;6128717;23;19901;-77
2022/11/17 02:49:11;;;;;;;;;;;11.80;99.90;;;;;;6128674;23;19901;-77
2022/11/17 02:51:37;;;;;;;;;;;11.70;99.90;;;;;;6129042;23;19931;-77
2022/11/17 02:54:03;;;;;;;;;;;11.70;99.90;;;;;;6128681;23;19905;-78
2022/11/17 02:56:28;;;;;;;;;;;11.60;99.90;;;;;;6128770;23;19901;-78
2022/11/17 02:58:56;;;;;;;;;;;11.60;99.90;;;;;;6129629;23;19901;-78
2022/11/17 03:01:28;;;;;;;;;;;11.60;99.90;;;;;;6127273;23;19907;-76
2022/11/17 03:03:56;;;;;;;;;;;11.60;99.90;;;;;;6128701;23;19901;-77
2022/11/17 03:06:28;;;;;;;;;;;11.60;99.90;;;;;;6127092;23;19984;-79
2022/11/17 03:08:54;;;;;;;;;;;11.60;99.90;;;;;;6129258;23;19901;-78
2022/11/17 03:11:22;;;;;;;;;;;11.70;99.90;;;;;;6128758;23;19900;-77
2022/11/17 03:13:47;;;;;;;;;;;11.70;99.90;;;;;;6128406;23;20315;-78
2022/11/17 03:16:25;;;;;;;;;;;11.60;99.90;;;;;;6128421;23;19901;-79
2022/11/17 03:18:59;;;;;;;;;;;11.50;99.90;;;;;;6128522;23;19905;-79
2022/11/17 03:21:26;;;;;;;;;;;11.50;1.00;;;;;;6128614;23;19949;-77
2022/11/17 03:24:02;;;;;;;;;;;11.30;1.00;;;;;;6126771;23;19907;-80
2022/11/17 03:26:31;;;;;;;;;;;11.20;99.90;;;;;;6126653;23;19929;-80
2022/11/17 03:28:57;;;;;;;;;;;11.00;1.00;;;;;;6126649;23;20276;-79
2022/11/17 03:31:24;;;;;;;;;;;10.90;99.90;;;;;;6128244;23;19972;-78
2022/11/17 03:33:50;;;;;;;;;;;10.80;99.90;;;;;;6128197;23;20035;-79
2022/11/17 03:36:19;;;;;;;;;;;10.80;99.90;;;;;;6128345;23;19902;-78
2022/11/17 03:39:05;;;;;;;;;;;10.80;99.90;;;;;;6127746;23;19920;-79
2022/11/17 03:41:33;;;;;;;;;;;10.70;99.90;;;;;;6128542;23;19908;-77
2022/11/17 03:43:59;;;;;;;;;;;10.70;99.90;;;;;;6128337;23;19901;-77
2022/11/17 03:46:25;;;;;;;;;;;10.70;99.90;;;;;;6128329;23;19908;-78
2022/11/17 03:49:02;;;;;;;;;;;10.70;99.90;;;;;;6128297;23;19925;-77
2022/11/17 03:51:29;;;;;;;;;;;10.70;99.90;;;;;;6128455;23;19905;-78
2022/11/17 03:53:55;;;;;;;;;;;10.70;99.90;;;;;;6127968;23;19916;-77
2022/11/17 03:56:33;;;;;;;;;;;10.70;99.90;;;;;;6128246;23;19900;-77
2022/11/17 03:59:00;;;;;;;;;;;10.70;99.90;;;;;;6128478;23;19901;-78
2022/11/17 04:01:27;;;;;;;;;;;10.80;99.90;;;;;;6128287;23;20379;-78
2022/11/17 04:03:53;;;;;;;;;;;10.80;99.90;;;;;;6128155;23;19901;-78
2022/11/17 04:06:19;;;;;;;;;;;10.80;99.90;;;;;;6128156;23;19901;-78
2022/11/17 04:08:44;;;;;;;;;;;10.80;99.90;;;;;;6126585;23;19952;-79
2022/11/17 04:16:38;;;;;;;;;;;10.70;99.90;;;;;;6127766;23;19952;-80
2022/11/17 04:19:04;;;;;;;;;;;10.70;93.80;;;;;;6127909;23;19904;-79
2022/11/17 04:21:29;;;;;;;;;;;10.80;1.00;;;;;;6128149;23;19936;-77
2022/11/17 04:23:56;;;;;;;;;;;10.70;1.00;;;;;;6127840;23;20324;-80
2022/11/17 04:29:06;;;;;;;;;;;10.70;1.00;;;;;;6127990;23;19908;-77
2022/11/17 04:31:32;;;;;;;;;;;10.70;1.00;;;;;;6128241;23;19905;-78
2022/11/17 04:33:58;;;;;;;;;;;10.80;1.00;;;;;;6127947;23;19909;-80
2022/11/17 04:36:25;;;;;;;;;;;10.90;99.90;;;;;;6127837;23;19928;-77
2022/11/17 04:38:52;;;;;;;;;;;10.90;99.90;;;;;;6127115;23;19913;-78
2022/11/17 04:44:03;;;;;;;;;;;10.90;99.90;;;;;;6127536;23;20300;-77
2022/11/17 04:46:29;;;;;;;;;;;10.90;99.90;;;;;;6127521;23;19936;-78
2022/11/17 04:48:55;;;;;;;;;;;10.90;67.90;;;;;;6127847;23;19940;-78
2022/11/17 04:51:21;;;;;;;;;;;10.80;43.60;;;;;;6127712;23;19901;-77
2022/11/17 04:53:47;;;;;;;;;;;10.80;57.70;;;;;;6128372;23;19908;-80
2022/11/17 04:56:13;;;;;;;;;;;10.80;86.20;;;;;;6128301;23;19968;-78
2022/11/17 04:58:39;;;;;;;;;;;10.80;99.90;;;;;;6128266;23;20271;-77
2022/11/17 05:01:15;;;;;;;;;;;10.90;13.90;;;;;;6128216;23;20252;-76
2022/11/17 05:03:50;;;;;;;;;;;10.90;1.00;;;;;;6130201;23;19901;-78
2022/11/17 05:06:26;;;;;;;;;;;10.90;1.00;;;;;;6129886;23;19905;-79
2022/11/17 05:08:55;;;;;;;;;;;11.10;1.00;;;;;;6130399;23;19901;-77
2022/11/17 05:14:06;;;;;;;;;;;11.10;1.00;;;;;;6129228;23;19956;-78
2022/11/17 05:19:18;;;;;;;;;;;11.10;1.00;;;;;;6129394;23;19952;-79
2022/11/17 05:21:43;;;;;;;;;;;11.10;1.00;;;;;;6129487;23;19908;-77
2022/11/17 05:24:09;;;;;;;;;;;11.20;1.00;;;;;;6130114;23;19940;-78
2022/11/17 05:26:35;;;;;;;;;;;11.30;99.90;;;;;;6129956;23;19901;-78
2022/11/17 05:29:03;;;;;;;;;;;11.20;99.90;;;;;;6129447;23;19908;-78
2022/11/17 05:31:29;;;;;;;;;;;11.30;99.90;;;;;;6129713;23;19971;-77
2022/11/17 05:33:55;;;;;;;;;;;11.30;99.90;;;;;;6129156;23;19932;-78
2022/11/17 05:36:21;;;;;;;;;;;11.30;99.90;;;;;;6129059;23;19901;-79
2022/11/17 05:38:47;;;;;;;;;;;11.30;99.90;;;;;;6128693;23;19916;-80
2022/11/17 05:41:14;;;;;;;;;;;11.20;99.90;;;;;;6129758;23;20324;-78
2022/11/17 05:43:39;;;;;;;;;;;11.20;99.90;;;;;;6129550;23;19901;-78
2022/11/17 05:46:05;;;;;;;;;;;11.20;99.90;;;;;;6129588;23;20279;-77
2022/11/17 05:48:32;;;;;;;;;;;11.00;99.90;;;;;;6129457;23;19900;-78
2022/11/17 05:50:58;;;;;;;;;;;10.90;99.90;;;;;;6129216;23;19909;-79
2022/11/17 05:53:23;;;;;;;;;;;10.90;99.90;;;;;;6129148;23;19901;-77
2022/11/17 05:55:49;;;;;;;;;;;10.90;99.90;;;;;;6129145;23;19904;-78
2022/11/17 05:58:21;;;;;;;;;;;10.90;99.90;;;;;;6129561;23;19908;-78
2022/11/17 06:00:47;;;;;;;;;;;10.90;99.90;;;;;;6127582;23;19908;-76
2022/11/17 06:03:17;;;;;;;;;;;10.90;99.90;;;;;;6129155;23;19940;-77
2022/11/17 06:05:43;;;;;;;;;;;10.90;99.90;;;;;;6129583;23;19901;-77
2022/11/17 06:08:09;;;;;;;;;;;10.90;99.90;;;;;;6129525;23;19975;-78
2022/11/17 06:10:34;;;;;;;;;;;10.90;99.90;;;;;;6129159;23;19900;-77
2022/11/17 06:13:00;;;;;;;;;;;10.90;99.90;;;;;;6129467;23;19901;-78
2022/11/17 06:15:25;;;;;;;;;;;10.80;99.90;;;;;;6128976;23;19905;-78
2022/11/17 06:17:54;;;;;;;;;;;10.70;99.90;;;;;;6129739;23;19900;-79
2022/11/17 06:20:23;;;;;;;;;;;10.80;99.90;;;;;;6127388;23;19901;-77
2022/11/17 06:22:49;;;;;;;;;;;10.70;99.90;;;;;;6129133;23;19992;-80
2022/11/17 06:25:16;;;;;;;;;;;10.70;99.90;;;;;;6129063;23;20308;-77
2022/11/17 06:27:41;;;;;;;;;;;10.70;99.90;;;;;;6128997;23;19901;-77
2022/11/17 06:30:07;;;;;;;;;;;10.70;99.90;;;;;;6128885;23;19904;-78
2022/11/17 06:32:34;;;;;;;;;;;10.70;99.90;;;;;;6129236;23;20221;-76
2022/11/17 06:35:02;;;;;;;;;;;10.70;99.90;;;;;;6129295;23;19904;-79
2022/11/17 06:37:27;;;;;;;;;;;10.60;99.90;;;;;;6128412;23;19992;-80
2022/11/17 06:39:53;;;;;;;;;;;10.60;99.90;;;;;;6129004;23;20240;-79
2022/11/17 06:43:02;;;;;;;;;;;10.50;99.90;;;;;;6128637;23;19900;-78
2022/11/17 06:45:04;;;;;;;;;;;10.50;99.90;;;;;;6128573;23;19901;-78
2022/11/17 06:47:30;;;;;;;;;;;10.40;99.90;;;;;;6129142;23;19969;-78
2022/11/17 06:49:55;;;;;;;;;;;10.40;99.90;;;;;;6128730;23;19948;-76
2022/11/17 06:52:21;;;;;;;;;;;10.30;99.90;;;;;;6129119;23;19907;-78
2022/11/17 06:54:47;;;;;;;;;;;10.40;99.90;;;;;;6128806;23;19962;-78
2022/11/17 06:57:13;;;;;;;;;;;10.40;99.90;;;;;;6128609;23;19904;-77
2022/11/17 06:59:38;;;;;;;;;;;10.40;99.90;;;;;;6128873;23;20320;-79
2022/11/17 07:02:04;;;;;;;;;;;10.40;99.90;;;;;;6128463;23;19901;-78
2022/11/17 07:04:29;;;;;;;;;;;10.40;99.90;;;;;;6128549;23;19901;-78
2022/11/17 07:06:55;;;;;;;;;;;10.40;99.90;;;;;;6128726;23;19908;-77
2022/11/17 07:09:20;;;;;;;;;;;10.30;99.90;;;;;;6128726;23;19901;-78
2022/11/17 07:11:46;;;;;;;;;;;10.20;99.90;;;;;;6126897;23;19929;-77
2022/11/17 07:14:11;;;;;;;;;;;10.30;99.90;;;;;;6128451;23;19911;-77
2022/11/17 07:16:40;;;;;;;;;;;10.30;99.90;;;;;;6128434;23;19905;-78
2022/11/17 07:19:07;;;;;;;;;;;10.30;99.90;;;;;;6128519;23;19956;-78
2022/11/17 07:21:32;;;;;;;;;;;10.30;99.90;;;;;;6126811;23;19901;-78
2022/11/17 07:23:58;;;;;;;;;;;10.30;1.00;;;;;;6128405;23;19901;-78
2022/11/17 07:26:23;;;;;;;;;;;10.20;1.00;;;;;;6129032;23;20343;-78
2022/11/17 07:28:49;;;;;;;;;;;10.30;1.00;;;;;;6129170;23;19901;-79
2022/11/17 07:31:15;;;;;;;;;;;10.20;1.00;;;;;;6128643;23;19901;-77
2022/11/17 07:33:41;;;;;;;;;;;10.30;1.00;;;;;;6128515;23;19904;-77
2022/11/17 07:36:08;;;;;;;;;;;10.30;1.00;;;;;;6128412;23;19948;-77
2022/11/17 07:38:34;;;;;;;;;;;10.40;1.00;;;;;;6128097;23;19912;-78
2022/11/17 07:41:00;;;;;;;;;;;10.50;1.00;;;;;;6128306;23;19901;-77
2022/11/17 07:43:26;;;;;;;;;;;10.50;1.00;;;;;;6128253;23;19901;-77
2022/11/17 07:45:52;;;;;;;;;;;10.50;1.00;;;;;;6128443;23;19923;-78
2022/11/17 07:48:18;;;;;;;;;;;10.60;1.00;;;;;;6128158;23;20337;-77
2022/11/17 07:50:43;;;;;;;;;;;10.50;1.00;;;;;;6128092;23;20284;-77
2022/11/17 07:53:09;;;;;;;;;;;10.50;1.00;;;;;;6128745;23;19908;-78
2022/11/17 07:55:34;;;;;;;;;;;10.50;1.00;;;;;;6127923;23;19905;-77
2022/11/17 07:58:00;;;;;;;;;;;10.50;1.00;;;;;;6126579;23;19908;-79
2022/11/17 08:00:27;;;;;;;;;;;10.70;1.00;;;;;;6126595;23;19901;-79
2022/11/17 08:02:52;;;;;;;;;;;10.70;99.90;;;;;;6128487;23;19948;-78
2022/11/17 08:05:19;;;;;;;;;;;10.70;99.90;;;;;;6128446;23;20312;-77
2022/11/17 08:07:52;;;;;;;;;;;10.70;99.90;;;;;;6128174;23;19969;-77
2022/11/17 08:10:18;;;;;;;;;;;10.80;99.90;;;;;;6128179;23;19912;-79
2022/11/17 08:12:43;;;;;;;;;;;10.90;99.90;;;;;;6128148;23;19900;-78
2022/11/17 08:15:09;;;;;;;;;;;11.40;99.90;;;;;;6126336;23;19905;-78
2022/11/17 08:17:35;;;;;;;;;;;12.20;99.90;;;;;;6128350;23;19901;-79
2022/11/17 08:20:02;;;;;;;;;;;12.70;99.90;;;;;;6128232;23;19935;-78
2022/11/17 08:22:28;;;;;;;;;;;12.90;99.90;;;;;;6127938;23;19920;-78
2022/11/17 08:24:53;;;;;;;;;;;13.00;99.90;;;;;;6126204;23;19901;-79
2022/11/17 08:27:19;;;;;;;;;;;13.20;99.90;;;;;;6128422;23;19964;-78
2022/11/17 08:29:44;;;;;;;;;;;13.90;99.90;;;;;;6127774;23;19923;-80
2022/11/17 08:32:10;;;;;;;;;;;14.40;99.90;;;;;;6127917;23;19901;-79
2022/11/17 08:34:35;;;;;;;;;;;14.80;99.90;;;;;;6128153;23;19905;-80
2022/11/17 08:37:01;;;;;;;;;;;15.10;98.50;;;;;;6127642;23;19981;-81
2022/11/17 08:39:27;;;;;;;;;;;15.60;89.30;;;;;;6128066;23;19912;-79
2022/11/17 08:41:52;;;;;;;;;;;15.60;77.90;;;;;;6128097;23;19908;-80
2022/11/17 08:44:18;;;;;;;;;;;15.70;79.90;;;;;;6128040;23;19929;-81
2022/11/17 08:46:44;;;;;;;;;;;15.90;78.70;;;;;;6127951;23;20319;-77
2022/11/17 08:49:09;;;;;;;;;;;16.50;63.70;;;;;;6128244;23;20316;-78
2022/11/17 08:51:39;;;;;;;;;;;17.10;39.90;;;;;;6128075;23;19900;-80
2022/11/17 08:54:05;;;;;;;;;;;17.60;39.70;;;;;;6127145;23;19916;-80
2022/11/17 08:56:30;;;;;;;;;;;18.30;29.90;;;;;;6126194;23;19901;-77
2022/11/17 08:58:56;;;;;;;;;;;18.60;19.50;;;;;;6127973;23;19901;-77
2022/11/17 09:01:22;;;;;;;;;;;18.70;23.30;;;;;;6127948;23;19924;-78
2022/11/17 09:03:47;;;;;;;;;;;17.70;17.10;;;;;;6127733;23;19912;-79
2022/11/17 09:06:14;;;;;;;;;;;17.20;24.60;;;;;;6127898;23;20356;-80
2022/11/17 09:08:40;;;;;;;;;;;16.40;42.10;;;;;;6127767;23;19931;-79
2022/11/17 09:11:07;;;;;;;;;;;15.90;51.40;;;;;;6127742;23;19901;-79
2022/11/17 09:13:33;;;;;;;;;;;15.40;80.00;;;;;;6127841;23;19908;-78
2022/11/17 09:16:00;;;;;;;;;;;17.50;57.60;;;;;;6127646;23;19928;-78
2022/11/17 09:18:25;;;;;;;;;;;18.50;24.00;;;;;;6127711;23;20287;-79
2022/11/17 09:20:51;;;;;;;;;;;19.60;9.00;;;;;;6127540;23;19901;-80
2022/11/17 09:23:16;;;;;;;;;;;19.60;6.40;;;;;;6127665;23;20229;-79
2022/11/17 09:25:42;;;;;;;;;;;20.80;2.40;;;;;;6127770;23;19901;-80
2022/11/17 09:28:08;;;;;;;;;;;20.80;1.00;;;;;;6127434;23;19929;-78
2022/11/17 09:30:35;;;;;;;;;;;19.40;1.00;;;;;;6127556;23;19901;-79
2022/11/17 09:33:00;;;;;;;;;;;18.40;10.80;;;;;;6128105;23;19933;-77
2022/11/17 09:35:26;;;;;;;;;;;20.90;1.00;;;;;;6127522;23;19905;-78
2022/11/17 09:37:51;;;;;;;;;;;19.80;1.00;;;;;;6127264;23;19912;-80
2022/11/17 09:40:18;;;;;;;;;;;17.90;11.10;;;;;;6128171;23;19955;-78
2022/11/17 09:42:44;;;;;;;;;;;16.60;34.90;;;;;;6129354;23;19971;-78
2022/11/17 09:45:12;;;;;;;;;;;15.90;62.90;;;;;;6129479;23;19959;-78
2022/11/17 09:47:47;;;;;;;;;;;16.00;66.70;;;;;;6129584;23;20343;-77
2022/11/17 09:50:26;;;;;;;;;;;15.70;66.00;;;;;;6129456;23;19907;-78
2022/11/17 09:53:10;;;;;;;;;;;16.10;70.80;;;;;;6129372;23;19900;-78
2022/11/17 09:55:37;;;;;;;;;;;17.60;22.00;;;;;;6129359;23;19984;-78
2022/11/17 09:58:07;;;;;;;;;;;16.50;32.70;;;;;;6129218;23;19976;-80
2022/11/17 10:00:34;;;;;;;;;;;16.60;36.30;;;;;;6129147;23;19901;-78
2022/11/17 10:02:59;;;;;;;;;;;16.40;32.00;;;;;;6129393;23;19954;-77
2022/11/17 10:05:25;;;;;;;;;;;15.50;52.00;;;;;;6129205;23;19901;-77
2022/11/17 10:07:52;;;;;;;;;;;16.60;43.20;;;;;;6129123;23;20218;-78
2022/11/17 10:10:20;;;;;;;;;;;17.10;27.40;;;;;;6129352;23;19905;-79
2022/11/17 10:12:48;;;;;;;;;;;20.70;6.50;;;;;;6129143;23;19900;-80
2022/11/17 10:15:20;;;;;;;;;;;22.20;1.00;;;;;;6129175;23;19912;-78
2022/11/17 10:17:46;;;;;;;;;;;20.70;1.00;;;;;;6129546;23;20351;-79
2022/11/17 10:20:16;;;;;;;;;;;21.70;1.00;;;;;;6129200;23;19901;-78
2022/11/17 10:22:42;;;;;;;;;;;22.60;1.00;;;;;;6129085;23;19908;-79
2022/11/17 10:25:26;;;;;;;;;;;21.90;1.00;;;;;;6129042;23;20324;-78
2022/11/17 10:27:52;;;;;;;;;;;21.60;1.00;;;;;;6129044;23;19907;-78
2022/11/17 10:30:18;;;;;;;;;;;21.90;1.00;;;;;;6129036;23;19908;-81
2022/11/17 10:32:57;;;;;;;;;;;22.20;1.00;;;;;;6129148;23;20275;-78
2022/11/17 10:35:22;;;;;;;;;;;21.20;1.00;;;;;;6128994;23;19912;-80
2022/11/17 10:37:52;;;;;;;;;;;22.90;1.00;;;;;;6126477;23;19912;-77
2022/11/17 10:40:19;;;;;;;;;;;22.70;1.00;;;;;;6129086;23;19905;-81
2022/11/17 10:42:53;;;;;;;;;;;20.90;1.00;;;;;;6128794;23;20320;-79
2022/11/17 10:45:18;;;;;;;;;;;20.90;1.00;;;;;;6129363;23;19952;-78
2022/11/17 10:47:44;;;;;;;;;;;23.20;1.00;;;;;;6129287;23;20280;-78
2022/11/17 10:50:20;;;;;;;;;;;22.00;1.00;;;;;;6128847;23;19925;-78
2022/11/17 10:52:47;;;;;;;;;;;22.50;1.00;;;;;;6128634;23;19901;-79
2022/11/17 10:55:30;;;;;;;;;;;21.80;1.00;;;;;;6128697;23;19905;-80
2022/11/17 10:58:01;;;;;;;;;;;22.50;1.00;;;;;;6128898;23;19951;-79
2022/11/17 11:00:34;;;;;;;;;;;24.10;1.00;;;;;;6128903;23;19901;-78
2022/11/17 11:03:17;;;;;;;;;;;24.20;1.00;;;;;;6128662;23;19965;-77
2022/11/17 11:06:00;;;;;;;;;;;23.20;1.00;;;;;;6129053;23;19901;-76
2022/11/17 11:08:32;;;;;;;;;;;23.00;1.00;;;;;;6128642;23;20064;-75
2022/11/17 11:10:58;;;;;;;;;;;22.10;1.00;;;;;;6128604;23;19911;-79
2022/11/17 11:13:32;;;;;;;;;;;19.20;1.00;;;;;;6128600;23;19908;-78
2022/11/17 11:15:58;;;;;;;;;;;18.20;1.00;;;;;;6128794;23;19916;-78
2022/11/17 11:18:26;;;;;;;;;;;17.30;1.50;;;;;;6128562;23;19900;-78
2022/11/17 11:20:52;;;;;;;;;;;17.10;6.70;;;;;;6128552;23;19901;-78
2022/11/17 11:23:26;;;;;;;;;;;17.20;8.00;;;;;;6128207;23;19912;-78
2022/11/17 11:26:12;;;;;;;;;;;17.30;7.20;;;;;;6128732;23;19948;-80
2022/11/17 11:28:53;;;;;;;;;;;17.10;9.20;;;;;;6128867;23;19905;-78
2022/11/17 11:31:19;;;;;;;;;;;16.90;18.60;;;;;;6128441;23;20379;-77
2022/11/17 11:33:49;;;;;;;;;;;16.70;13.80;;;;;;6128224;23;19901;-78
2022/11/17 11:36:29;;;;;;;;;;;16.50;15.70;;;;;;6128420;23;19932;-77
2022/11/17 11:38:54;;;;;;;;;;;17.10;15.70;;;;;;6128212;23;20329;-78
2022/11/17 11:41:26;;;;;;;;;;;16.90;19.10;;;;;;6128267;23;19901;-80
2022/11/17 11:43:57;;;;;;;;;;;16.90;14.50;;;;;;6128045;23;19901;-79
2022/11/17 11:46:29;;;;;;;;;;;19.20;3.30;;;;;;6128399;23;20347;-79
2022/11/17 11:48:56;;;;;;;;;;;19.60;1.00;;;;;;6128520;23;19976;-79
2022/11/17 11:51:25;;;;;;;;;;;20.10;1.00;;;;;;6128453;23;19907;-80
2022/11/17 11:53:57;;;;;;;;;;;22.50;1.00;;;;;;6128012;23;19912;-77
2022/11/17 11:56:22;;;;;;;;;;;22.70;1.00;;;;;;6128210;23;19923;-75
2022/11/17 11:59:05;;;;;;;;;;;23.70;1.00;;;;;;6128125;23;20316;-79
2022/11/17 12:01:39;;;;;;;;;;;24.40;1.00;;;;;;6127979;23;20243;-78
2022/11/17 12:04:11;;;;;;;;;;;27.00;1.00;;;;;;6128883;23;19932;-77
2022/11/17 12:06:42;;;;;;;;;;;26.90;1.00;;;;;;6128432;23;19987;-76
2022/11/17 12:09:16;;;;;;;;;;;25.50;1.00;;;;;;6126284;23;20256;-75
2022/11/17 12:12:01;;;;;;;;;;;22.80;1.00;;;;;;6126310;23;19924;-78
2022/11/17 12:14:31;;;;;;;;;;;20.00;1.00;;;;;;6128248;23;19904;-77
2022/11/17 12:17:11;;;;;;;;;;;18.40;1.00;;;;;;6128208;23;19908;-78
2022/11/17 12:19:43;;;;;;;;;;;18.00;1.00;;;;;;6128120;23;19951;-78
2022/11/17 12:22:35;;;;;;;;;;;17.40;3.70;;;;;;6128024;23;20248;-79
2022/11/17 12:25:03;;;;;;;;;;;17.30;9.10;;;;;;6124894;23;19908;-77
2022/11/17 12:27:29;;;;;;;;;;;17.00;10.10;;;;;;6127907;23;19991;-79
2022/11/17 12:29:55;;;;;;;;;;;16.80;12.70;;;;;;6127992;23;20316;-77
2022/11/17 12:32:39;;;;;;;;;;;16.40;18.90;;;;;;6126428;23;20216;-77
2022/11/17 12:35:23;;;;;;;;;;;16.00;24.30;;;;;;6127792;23;19905;-78
2022/11/17 12:38:08;;;;;;;;;;;15.90;28.10;;;;;;6127348;23;19912;-78
2022/11/17 12:40:37;;;;;;;;;;;15.90;31.20;;;;;;6127888;23;20284;-79
2022/11/17 12:43:15;;;;;;;;;;;15.80;36.10;;;;;;6127813;23;19901;-76
2022/11/17 12:46:00;;;;;;;;;;;15.70;41.60;;;;;;6127832;23;20328;-78
2022/11/17 12:48:30;;;;;;;;;;;15.40;52.30;;;;;;6128191;23;19908;-78
2022/11/17 12:51:15;;;;;;;;;;;15.30;62.00;;;;;;6127695;23;19901;-78
2022/11/17 12:53:51;;;;;;;;;;;15.30;62.40;;;;;;6127903;23;19901;-78
2022/11/17 12:56:37;;;;;;;;;;;15.20;67.50;;;;;;6127931;23;19908;-78
2022/11/17 12:59:21;;;;;;;;;;;15.20;69.20;;;;;;6128028;23;19901;-78
2022/11/17 13:02:10;;;;;;;;;;;15.00;76.50;;;;;;6128131;23;19955;-78
2022/11/17 13:04:58;;;;;;;;;;;14.90;90.60;;;;;;6127942;23;19901;-77
2022/11/17 13:07:25;;;;;;;;;;;14.80;91.70;;;;;;6120060;23;19901;-77
2022/11/17 13:09:52;;;;;;;;;;;14.70;92.90;;;;;;6127769;23;20316;-78
2022/11/17 13:12:21;;;;;;;;;;;14.90;73.10;;;;;;6128056;23;20151;-76
2022/11/17 13:14:54;;;;;;;;;;;14.70;76.90;;;;;;6128462;23;19905;-77
2022/11/17 13:17:46;;;;;;;;;;;14.90;87.60;;;;;;6129714;23;19901;-78
2022/11/17 13:20:14;;;;;;;;;;;15.10;62.60;;;;;;6127030;23;19908;-79
2022/11/17 13:22:40;;;;;;;;;;;15.20;57.30;;;;;;6129723;23;19917;-77
2022/11/17 13:25:19;;;;;;;;;;;15.20;57.40;;;;;;6130023;23;19900;-77
2022/11/17 13:27:45;;;;;;;;;;;15.30;42.60;;;;;;6130189;23;19933;-77
2022/11/17 13:30:21;;;;;;;;;;;14.90;52.20;;;;;;6130005;23;19908;-78
2022/11/17 13:32:47;;;;;;;;;;;14.80;45.90;;;;;;6129705;23;19983;-77
2022/11/17 13:35:25;;;;;;;;;;;14.60;34.30;;;;;;6127868;23;19932;-78
2022/11/17 13:38:16;;;;;;;;;;;14.60;42.00;;;;;;6129509;23;20347;-77
2022/11/17 13:40:42;;;;;;;;;;;14.50;46.60;;;;;;6129798;23;19904;-78
2022/11/17 13:43:17;;;;;;;;;;;14.60;42.10;;;;;;6129184;23;20035;-78
2022/11/17 13:45:46;;;;;;;;;;;14.60;42.10;;;;;;6129658;23;19901;-78
2022/11/17 13:48:31;;;;;;;;;;;14.60;50.00;;;;;;6128803;23;19927;-77
2022/11/17 13:51:13;;;;;;;;;;;15.00;42.00;;;;;;6127683;23;20343;-77
2022/11/17 13:53:40;;;;;;;;;;;15.40;42.50;;;;;;6129528;23;19904;-77
2022/11/17 13:56:19;;;;;;;;;;;15.40;37.70;;;;;;6130041;23;20280;-76
2022/11/17 13:58:46;;;;;;;;;;;15.40;41.60;;;;;;6129488;23;19900;-77
2022/11/17 14:01:15;;;;;;;;;;;15.30;44.50;;;;;;6129546;23;19936;-79
2022/11/17 14:03:41;;;;;;;;;;;15.00;49.30;;;;;;6129305;23;19976;-78
2022/11/17 14:06:11;;;;;;;;;;;14.90;49.60;;;;;;6129389;23;19900;-78
2022/11/17 14:08:37;;;;;;;;;;;14.80;56.20;;;;;;6129368;23;20292;-76
2022/11/17 14:11:09;;;;;;;;;;;14.50;66.40;;;;;;6129484;23;20240;-77
2022/11/17 14:13:43;;;;;;;;;;;14.50;77.50;;;;;;6129388;23;19936;-78
2022/11/17 14:16:19;;;;;;;;;;;14.40;78.90;;;;;;6130057;23;19911;-78
2022/11/17 14:18:53;;;;;;;;;;;14.60;92.30;;;;;;6129938;23;19907;-76
2022/11/17 14:21:19;;;;;;;;;;;14.60;84.90;;;;;;6129429;23;20239;-79
2022/11/17 14:23:44;;;;;;;;;;;14.50;89.30;;;;;;6129368;23;19907;-75
2022/11/17 14:26:21;;;;;;;;;;;14.40;93.70;;;;;;6128343;23;20217;-76
2022/11/17 14:28:48;;;;;;;;;;;14.50;91.20;;;;;;6129244;23;19932;-77
2022/11/17 14:31:14;;;;;;;;;;;14.40;94.70;;;;;;6129199;23;20212;-78
2022/11/17 14:33:39;;;;;;;;;;;14.20;99.90;;;;;;6129324;23;19928;-78
2022/11/17 14:36:09;;;;;;;;;;;14.20;99.90;;;;;;6129102;23;20316;-77
2022/11/17 14:38:35;;;;;;;;;;;14.20;99.90;;;;;;6128536;23;20351;-77
2022/11/17 14:41:00;;;;;;;;;;;14.20;99.90;;;;;;6129309;23;19901;-79
2022/11/17 14:43:26;;;;;;;;;;;14.10;99.90;;;;;;6128820;23;19901;-78
2022/11/17 14:45:51;;;;;;;;;;;14.30;99.90;;;;;;6127434;23;20279;-77
2022/11/17 14:48:17;;;;;;;;;;;14.30;99.90;;;;;;6128805;23;19901;-77
2022/11/17 14:50:42;;;;;;;;;;;14.10;99.90;;;;;;6128979;23;20324;-77
2022/11/17 14:53:08;;;;;;;;;;;14.00;99.90;;;;;;6129402;23;19904;-78
2022/11/17 14:55:34;;;;;;;;;;;13.90;99.90;;;;;;6128827;23;19911;-77